Flight Track Log - Related Links

Times and Time Zones

All times are in EDT time to prevent confusion due to time zone crossing. See the SWA2122 flight status page for this flight to view local times or setup timezone preferences in your user account.

Time Position Orientation Groundspeed Altitude Reporting Facility
EDT Latitude Longitude Course Direction KTS MPH feet Rate Location/Type
Sat 08:50:47 AM 39.1667 -76.7333 211° Southwest 187 215 1,900  Level Potomac TRACON
Sat 08:53:11 AM 39.1894 -76.9306 279° West 252 290 9,700 3,118 Climbing Washington Center
Sat 08:54:11 AM 39.1989 -77.0139 278° West 252 290 12,500 1,900 Climbing Washington Center
Sat 08:55:11 AM 39.2081 -77.1239 276° West 276 318 13,500 1,835 Climbing Washington Center
Sat 08:56:00 AM 39.1106 -77.2233 211° Southwest  Level FlightAware Approximate
Sat 08:56:12 AM 39.1506 -77.2161 231° Southwest 301 346 16,200  Level Washington Center
Sat 08:57:11 AM 39.1094 -77.3222 243° Southwest 311 358 17,800 2,420 Climbing Washington Center
Sat 08:58:11 AM 39.0764 -77.4392 250° West 339 390 21,000 2,950 Climbing Washington Center
Sat 08:59:11 AM 39.0411 -77.5586 249° West 339 390 23,700 1,950 Climbing Washington Center
Sat 09:00:11 AM 39.0100 -77.6753 251° West 339 390 24,900 1,400 Climbing Washington Center
Sat 09:01:11 AM 38.9747 -77.7917 249° West 348 400 26,500 1,750 Climbing Washington Center
Sat 09:02:11 AM 38.9389 -77.9133 249° West 356 410 28,400 1,950 Climbing Washington Center
Sat 09:03:11 AM 38.9056 -78.0272 249° West 356 410 30,400 1,750 Climbing Washington Center
Sat 09:04:11 AM 38.8739 -78.1381 250° West 349 402 31,900 1,450 Climbing Washington Center
Sat 09:05:11 AM 38.8508 -78.2492 255° West 343 395 33,300 1,300 Climbing Washington Center
Sat 09:06:11 AM 38.8503 -78.3664 270° West 338 389 34,500 950 Climbing Washington Center
Sat 09:07:11 AM 38.8494 -78.4864 270° West 333 383 35,200 750 Climbing Washington Center
Sat 09:08:11 AM 38.8486 -78.6064 270° West 333 383 36,000 400 Climbing Washington Center
Sat 09:09:11 AM 38.8456 -78.7261 268° West 333 383 36,000  Level Washington Center
Sat 09:10:11 AM 38.8467 -78.8436 271° West 338 389 36,000  Level Washington Center
Sat 09:11:11 AM 38.8414 -78.9578 267° West 332 382 36,000  Level Washington Center
Sat 09:12:11 AM 38.8400 -79.0725 269° West 326 375 36,000  Level Washington Center
Sat 09:13:11 AM 38.8389 -79.1869 269° West 326 375 36,000  Level Washington Center
Sat 09:14:11 AM 38.8186 -79.3006 257° West 326 375 36,000  Level Washington Center
Sat 09:15:11 AM 38.8006 -79.4117 258° West 331 381 36,000  Level Washington Center
Sat 09:16:11 AM 38.7833 -79.4986 256° West 331 381 36,000  Level Washington Center
Sat 09:17:11 AM 38.7661 -79.6389 261° West 337 388 36,000  Level Washington Center
Sat 09:18:11 AM 38.7458 -79.7414 256° West 337 388 36,000  Level Washington Center
Sat 09:19:11 AM 38.7250 -79.8575 257° West 331 381 36,000  Level Washington Center
Sat 09:20:11 AM 38.7019 -79.9783 256° West 338 389 36,000 -549 Level Washington Center
Sat 09:21:44 AM 38.6639 -80.1600 255° West 338 389 34,600 -779 Descending Indianapolis Center
Sat 09:22:45 AM 38.6417 -80.2789 257° West 342 394 34,000 -293 Descending Indianapolis Center
Sat 09:23:47 AM 38.6192 -80.3986 257° West 343 395 34,000  Level Indianapolis Center
Sat 09:24:48 AM 38.5969 -80.5172 257° West 342 394 34,000  Level Indianapolis Center
Sat 09:25:49 AM 38.5731 -80.6369 256° West 345 397 34,000  Level Indianapolis Center
Sat 09:26:51 AM 38.5503 -80.7564 256° West 346 398 34,000  Level Indianapolis Center
Sat 09:27:52 AM 38.5278 -80.8753 256° West 344 396 34,000  Level Indianapolis Center
Sat 09:28:54 AM 38.5044 -80.9936 256° West 342 394 34,000  Level Indianapolis Center
Sat 09:29:55 AM 38.4814 -81.1125 256° West 343 395 34,000  Level Indianapolis Center
Sat 09:30:57 AM 38.4583 -81.2303 256° West 341 392 34,000  Level Indianapolis Center
Sat 09:31:58 AM 38.4342 -81.3486 255° West 341 392 34,000  Level Indianapolis Center
Sat 09:33:00 AM 38.4061 -81.4917 256° West 342 394 34,000  Level Indianapolis Center
Sat 09:34:01 AM 38.3953 -81.6150 264° West 347 399 34,000  Level Indianapolis Center
Sat 09:35:03 AM 38.3844 -81.7375 264° West 345 397 34,000  Level Indianapolis Center
Sat 09:36:05 AM 38.3736 -81.8608 264° West 347 399 34,000  Level Indianapolis Center
Sat 09:37:06 AM 38.3558 -81.9797 259° West 342 394 34,000  Level Indianapolis Center
Sat 09:38:07 AM 38.3192 -82.0914 247° West 341 392 34,000  Level Indianapolis Center
Sat 09:39:09 AM 38.2856 -82.2050 249° West 342 394 34,000  Level Indianapolis Center
Sat 09:40:10 AM 38.2497 -82.3175 248° West 342 394 34,000  Level Indianapolis Center
Sat 09:41:12 AM 38.2147 -82.4297 248° West 341 392 34,000  Level Indianapolis Center
Sat 09:42:14 AM 38.1789 -82.5444 248° West 340 391 34,000  Level Indianapolis Center
Sat 09:43:15 AM 38.1367 -82.6750 248° West 343 395 34,000  Level Indianapolis Center
Sat 09:44:17 AM 38.1017 -82.7864 248° West 341 392 34,000  Level Indianapolis Center
Sat 09:45:18 AM 38.0656 -82.8981 248° West 342 394 34,000  Level Indianapolis Center
Sat 09:46:20 AM 38.0300 -83.0111 248° West 345 397 34,000  Level Indianapolis Center
Sat 09:47:21 AM 37.9881 -83.1200 244° Southwest 345 397 34,000  Level Indianapolis Center
Sat 09:48:23 AM 37.9350 -83.2225 237° Southwest 346 398 34,000  Level Indianapolis Center
Sat 09:49:25 AM 37.8728 -83.3403 236° Southwest 345 397 34,000  Level Indianapolis Center
Sat 09:50:26 AM 37.8197 -83.4414 236° Southwest 345 397 34,000  Level Indianapolis Center
Sat 09:51:28 AM 37.7664 -83.5414 236° Southwest 345 397 34,000  Level Indianapolis Center
Sat 09:52:29 AM 37.7122 -83.6422 236° Southwest 345 397 34,000  Level Indianapolis Center
Sat 09:53:31 AM 37.6594 -83.7419 236° Southwest 343 395 34,000  Level Indianapolis Center
Sat 09:54:33 AM 37.6056 -83.8417 236° Southwest 342 394 34,000  Level Indianapolis Center
Sat 09:55:34 AM 37.5519 -83.9425 236° Southwest 344 396 34,000  Level Indianapolis Center
Sat 09:56:36 AM 37.4886 -84.0600 236° Southwest 346 398 34,000 -49 Level Indianapolis Center
Sat 09:57:37 AM 37.4350 -84.1606 236° Southwest 346 398 33,900 -439 Descending Indianapolis Center
Sat 09:58:39 AM 37.3786 -84.2631 235° Southwest 356 410 33,100 -435 Descending Indianapolis Center
Sat 09:59:41 AM 37.3214 -84.3681 236° Southwest 362 417 33,000 -49 Descending Indianapolis Center
Sat 10:00:42 AM 37.2658 -84.4706 236° Southwest 358 412 33,000  Level Indianapolis Center
Sat 10:01:44 AM 37.2111 -84.5722 236° Southwest 352 405 33,000  Level Indianapolis Center
Sat 10:02:46 AM 37.1464 -84.6900 235° Southwest 351 404 33,000  Level Indianapolis Center
Sat 10:03:47 AM 37.0908 -84.7911 235° Southwest 353 406 33,000  Level Indianapolis Center
Sat 10:04:49 AM 37.0336 -84.8944 235° Southwest 354 407 33,000 -290 Level Indianapolis Center
Sat 10:05:51 AM 36.9792 -84.9931 235° Southwest 348 400 32,400 -1,597 Descending Indianapolis Center
Sat 10:06:53 AM 36.9206 -85.0975 235° Southwest 363 418 29,700 -2,683 Descending Indianapolis Center
Sat 10:07:54 AM 36.8631 -85.2019 235° Southwest 366 421 26,900 -2,537 Descending Indianapolis Center
Sat 10:08:56 AM 36.8069 -85.3003 235° Southwest 352 405 24,500 -2,341 Descending Indianapolis Center
Sat 10:09:57 AM 36.7558 -85.3936 236° Southwest 332 382 22,100 -1,563 Descending Indianapolis Center
Sat 10:10:32 AM 36.7244 -85.4514 236° Southwest 338 389 22,000 -63 Descending Memphis Center
Sat 10:11:32 AM 36.6806 -85.5550 242° Southwest 318 366 22,000  Level Memphis Center
Sat 10:12:32 AM 36.6358 -85.6406 237° Southwest 318 366 22,000 -300 Level Memphis Center
Sat 10:13:32 AM 36.5933 -85.7308 240° Southwest 323 372 21,400 -1,000 Descending Memphis Center
Sat 10:14:32 AM 36.5492 -85.8289 241° Southwest 317 365 20,000 -1,750 Descending Memphis Center
Sat 10:15:32 AM 36.5064 -85.9164 239° Southwest 300 345 17,900 -1,750 Descending Memphis Center
Sat 10:16:32 AM 36.4714 -85.9906 240° Southwest 293 337 16,500 -2,000 Descending Memphis Center
Sat 10:17:32 AM 36.4286 -86.0781 239° Southwest 293 337 13,900 -2,250 Descending Memphis Center
Sat 10:18:32 AM 36.3858 -86.1653 239° Southwest 298 343 12,000 -1,850 Descending Memphis Center
Sat 10:19:32 AM 36.3469 -86.2500 240° Southwest 293 337 10,200 -1,850 Descending Memphis Center
Sat 10:20:32 AM 36.3081 -86.3317 239° Southwest 293 337 8,300 -1,750 Descending Memphis Center
Sat 10:21:32 AM 36.2667 -86.4136 238° Southwest 282 325 6,700 -1,150 Descending Memphis Center
Sat 10:22:32 AM 36.2278 -86.4953 239° Southwest 277 319 6,000 -350 Descending Memphis Center
Sat 10:23:32 AM 36.1644 -86.5392 209° Southwest 255 293 6,000 -400 Level Memphis Center
Sat 10:24:32 AM 36.0964 -86.5656 197° South 255 293 5,200 -950 Descending Memphis Center
Sat 10:25:32 AM 36.0367 -86.5914 199° South 244 281 4,100 -850 Descending Memphis Center
Sat 10:26:32 AM 35.9856 -86.6194 204° Southwest 217 250 3,500 -400 Descending Memphis Center
Sat 10:27:32 AM 35.9933 -86.6703 281° West 138 159 3,300 -550 Descending Memphis Center
Sat 10:28:32 AM 36.0192 -86.7000 317° Northwest 113 130 2,400 -750 Descending Memphis Center
Sat 10:30:44 AM 36.1000 -86.6667 18° North 140 161 900 -682 Descending Nashville TRACON
Sat 10:32:00 AM 36.1167 -86.6667 North  Level FlightAware Approximate
Sat 10:39:00 AM 36.1245 -86.6782 North  Level Estimated
Sat 10:40:00 AM 36.1245 -86.6782 North  Level Estimated
Sat 10:41:00 AM 36.1245 -86.6782 North  Level Estimated
Sat 10:42:00 AM 36.1245 -86.6782 North  Level Estimated
Sat 10:43:00 AM 36.1245 -86.6782 North  Level Estimated
Sat 10:44:00 AM 36.1245 -86.6782 North  Level Estimated
Sat 10:45:00 AM 36.1245 -86.6782 North  Level Estimated
Sat 10:46:00 AM 36.1245 -86.6782 North  Level Estimated

Login

Don't have an account? Register now (free) for customized features, flight alerts, and more!